TAF Text Data
IDs:
Format:
Raw Decoded Include METAR

Data at: 0156 UTC 21 Sep 2021

KAGS 202323Z 2100/2124 09008KT P6SM VCSH OVC020
  FM210300 07006KT 3SM -RA BR OVC007
  FM211200 10006KT 2SM -RA BR OVC003
  FM211500 12007KT 4SM BR OVC007
  FM211900 15004KT P6SM VCSH OVC015